sensor_id;sensor_type;location;lat;lon;timestamp;pressure;altitude;pressure_sealevel;temperature;humidity
50430;BME280;36359;41.556;-8.418;2023-07-29T00:01:32;100149.09;;;23.71;95.72
50430;BME280;36359;41.556;-8.418;2023-07-29T00:03:58;100141.03;;;23.70;96.82
50430;BME280;36359;41.556;-8.418;2023-07-29T00:06:23;100146.91;;;23.73;97.47
50430;BME280;36359;41.556;-8.418;2023-07-29T00:08:49;100138.97;;;23.65;100.00
50430;BME280;36359;41.556;-8.418;2023-07-29T00:11:15;100146.19;;;23.66;100.00
50430;BME280;36359;41.556;-8.418;2023-07-29T00:13:41;100143.88;;;23.51;100.00
50430;BME280;36359;41.556;-8.418;2023-07-29T00:16:06;100142.44;;;23.61;100.00
50430;BME280;36359;41.556;-8.418;2023-07-29T00:18:32;100143.75;;;23.58;100.00
50430;BME280;36359;41.556;-8.418;2023-07-29T00:20:58;100142.44;;;23.61;96.54
50430;BME280;36359;41.556;-8.418;2023-07-29T00:23:23;100135.59;;;23.63;100.00
50430;BME280;36359;41.556;-8.418;2023-07-29T00:25:49;100132.19;;;23.61;100.00
50430;BME280;36359;41.556;-8.418;2023-07-29T00:28:15;100137.25;;;23.64;100.00
50430;BME280;36359;41.556;-8.418;2023-07-29T00:30:41;100131.72;;;23.64;97.34
50430;BME280;36359;41.556;-8.418;2023-07-29T00:33:06;100126.19;;;23.64;100.00
50430;BME280;36359;41.556;-8.418;2023-07-29T00:35:32;100124.50;;;23.63;100.00
50430;BME280;36359;41.556;-8.418;2023-07-29T00:37:59;100124.19;;;23.71;91.46
50430;BME280;36359;41.556;-8.418;2023-07-29T00:40:28;100125.38;;;23.75;97.38
50430;BME280;36359;41.556;-8.418;2023-07-29T00:42:54;100118.25;;;23.79;97.19
50430;BME280;36359;41.556;-8.418;2023-07-29T00:45:20;100111.53;;;23.75;98.94
50430;BME280;36359;41.556;-8.418;2023-07-29T00:47:46;100107.78;;;23.70;100.00
50430;BME280;36359;41.556;-8.418;2023-07-29T00:50:13;100117.16;;;23.69;93.91
50430;BME280;36359;41.556;-8.418;2023-07-29T00:52:40;100111.84;;;23.67;100.00
50430;BME280;36359;41.556;-8.418;2023-07-29T00:55:06;100106.31;;;23.67;100.00
50430;BME280;36359;41.556;-8.418;2023-07-29T00:57:32;100107.53;;;23.60;94.22
50430;BME280;36359;41.556;-8.418;2023-07-29T00:59:59;100105.47;;;23.67;98.11
50430;BME280;36359;41.556;-8.418;2023-07-29T01:02:26;100105.25;;;23.68;99.44
50430;BME280;36359;41.556;-8.418;2023-07-29T01:05:01;100098.47;;;23.64;100.00
50430;BME280;36359;41.556;-8.418;2023-07-29T01:07:59;100101.63;;;23.56;100.00
50430;BME280;36359;41.556;-8.418;2023-07-29T01:10:40;100092.84;;;23.47;100.00
50430;BME280;36359;41.556;-8.418;2023-07-29T01:16:03;100091.28;;;23.40;100.00
50430;BME280;36359;41.556;-8.418;2023-07-29T01:18:33;100083.31;;;23.43;100.00
50430;BME280;36359;41.556;-8.418;2023-07-29T01:21:03;100081.38;;;23.44;100.00
50430;BME280;36359;41.556;-8.418;2023-07-29T01:23:31;100083.81;;;23.40;99.75
50430;BME280;36359;41.556;-8.418;2023-07-29T01:25:58;100079.00;;;23.35;100.00
50430;BME280;36359;41.556;-8.418;2023-07-29T01:28:24;100077.56;;;23.45;97.85
50430;BME280;36359;41.556;-8.418;2023-07-29T01:33:42;100073.69;;;23.46;100.00
50430;BME280;36359;41.556;-8.418;2023-07-29T01:36:21;100069.47;;;23.43;99.95
50430;BME280;36359;41.556;-8.418;2023-07-29T01:38:49;100071.75;;;23.34;100.00
50430;BME280;36359;41.556;-8.418;2023-07-29T01:41:17;100085.03;;;23.32;100.00
50430;BME280;36359;41.556;-8.418;2023-07-29T01:43:44;100080.31;;;23.33;100.00
50430;BME280;36359;41.556;-8.418;2023-07-29T01:46:14;100072.50;;;23.42;99.94
50430;BME280;36359;41.556;-8.418;2023-07-29T01:48:40;100072.84;;;23.45;100.00
50430;BME280;36359;41.556;-8.418;2023-07-29T01:51:07;100073.81;;;23.51;94.82
50430;BME280;36359;41.556;-8.418;2023-07-29T01:53:33;100073.69;;;23.46;100.00
50430;BME280;36359;41.556;-8.418;2023-07-29T01:55:58;100072.59;;;23.35;100.00
50430;BME280;36359;41.556;-8.418;2023-07-29T01:58:24;100066.97;;;23.42;96.86
50430;BME280;36359;41.556;-8.418;2023-07-29T02:00:50;100070.78;;;23.41;100.00
50430;BME280;36359;41.556;-8.418;2023-07-29T02:03:16;100070.91;;;23.34;100.00
50430;BME280;36359;41.556;-8.418;2023-07-29T02:05:42;100070.56;;;23.30;100.00
50430;BME280;36359;41.556;-8.418;2023-07-29T02:08:10;100075.13;;;23.13;100.00
50430;BME280;36359;41.556;-8.418;2023-07-29T02:10:36;100087.88;;;23.26;99.97
50430;BME280;36359;41.556;-8.418;2023-07-29T02:13:03;100079.72;;;23.31;97.20
50430;BME280;36359;41.556;-8.418;2023-07-29T02:15:29;100073.69;;;23.34;100.00
50430;BME280;36359;41.556;-8.418;2023-07-29T02:17:55;100079.09;;;23.17;100.00
50430;BME280;36359;41.556;-8.418;2023-07-29T02:20:21;100073.53;;;23.17;99.53
50430;BME280;36359;41.556;-8.418;2023-07-29T02:22:47;100070.19;;;23.15;100.00
50430;BME280;36359;41.556;-8.418;2023-07-29T02:25:14;100076.22;;;23.12;100.00
50430;BME280;36359;41.556;-8.418;2023-07-29T02:27:40;100072.22;;;23.08;100.00
50430;BME280;36359;41.556;-8.418;2023-07-29T02:30:06;100070.75;;;23.05;100.00
50430;BME280;36359;41.556;-8.418;2023-07-29T02:32:32;100069.69;;;23.06;100.00
50430;BME280;36359;41.556;-8.418;2023-07-29T02:34:58;100065.91;;;22.89;100.00
50430;BME280;36359;41.556;-8.418;2023-07-29T02:37:24;100074.28;;;22.82;100.00
50430;BME280;36359;41.556;-8.418;2023-07-29T02:39:49;100076.97;;;22.89;100.00
50430;BME280;36359;41.556;-8.418;2023-07-29T02:42:15;100065.59;;;22.97;100.00
50430;BME280;36359;41.556;-8.418;2023-07-29T02:44:41;100057.03;;;22.99;100.00
50430;BME280;36359;41.556;-8.418;2023-07-29T02:47:07;100049.91;;;22.91;100.00
50430;BME280;36359;41.556;-8.418;2023-07-29T02:49:32;100046.91;;;22.93;100.00
50430;BME280;36359;41.556;-8.418;2023-07-29T02:51:58;100057.00;;;22.87;100.00
50430;BME280;36359;41.556;-8.418;2023-07-29T02:54:24;100055.06;;;22.87;100.00
50430;BME280;36359;41.556;-8.418;2023-07-29T02:56:50;100044.00;;;22.87;100.00
50430;BME280;36359;41.556;-8.418;2023-07-29T02:59:16;100047.25;;;22.84;100.00
50430;BME280;36359;41.556;-8.418;2023-07-29T03:01:42;100048.34;;;22.83;100.00
50430;BME280;36359;41.556;-8.418;2023-07-29T03:04:08;100046.25;;;22.79;100.00
50430;BME280;36359;41.556;-8.418;2023-07-29T03:06:34;100040.00;;;22.72;100.00
50430;BME280;36359;41.556;-8.418;2023-07-29T03:09:00;100041.78;;;22.66;100.00
50430;BME280;36359;41.556;-8.418;2023-07-29T03:11:26;100039.25;;;22.64;100.00
50430;BME280;36359;41.556;-8.418;2023-07-29T03:13:52;100036.50;;;22.76;100.00
50430;BME280;36359;41.556;-8.418;2023-07-29T03:16:17;100035.09;;;22.74;100.00
50430;BME280;36359;41.556;-8.418;2023-07-29T03:18:52;100036.25;;;22.66;100.00
50430;BME280;36359;41.556;-8.418;2023-07-29T03:21:17;100032.75;;;22.59;100.00
50430;BME280;36359;41.556;-8.418;2023-07-29T03:23:43;100040.00;;;22.72;100.00
50430;BME280;36359;41.556;-8.418;2023-07-29T03:26:09;100041.56;;;22.79;100.00
50430;BME280;36359;41.556;-8.418;2023-07-29T03:28:41;100033.88;;;22.70;100.00
50430;BME280;36359;41.556;-8.418;2023-07-29T03:31:07;100044.91;;;22.70;100.00
50430;BME280;36359;41.556;-8.418;2023-07-29T03:33:33;100035.75;;;22.57;100.00
50430;BME280;36359;41.556;-8.418;2023-07-29T03:35:59;100035.13;;;22.55;100.00
50430;BME280;36359;41.556;-8.418;2023-07-29T03:38:25;100039.09;;;22.48;100.00
50430;BME280;36359;41.556;-8.418;2023-07-29T03:40:51;100040.72;;;22.67;100.00
50430;BME280;36359;41.556;-8.418;2023-07-29T03:43:16;100036.50;;;22.76;100.00
50430;BME280;36359;41.556;-8.418;2023-07-29T03:45:43;100031.75;;;22.83;100.00
50430;BME280;36359;41.556;-8.418;2023-07-29T03:48:09;100039.56;;;22.86;100.00
50430;BME280;36359;41.556;-8.418;2023-07-29T03:50:36;100037.00;;;22.85;100.00
50430;BME280;36359;41.556;-8.418;2023-07-29T03:53:03;100039.03;;;22.66;100.00
50430;BME280;36359;41.556;-8.418;2023-07-29T03:55:28;100034.81;;;22.63;100.00
50430;BME280;36359;41.556;-8.418;2023-07-29T03:58:00;100032.41;;;22.67;100.00
50430;BME280;36359;41.556;-8.418;2023-07-29T04:00:26;100040.78;;;22.49;100.00
50430;BME280;36359;41.556;-8.418;2023-07-29T04:02:52;100043.47;;;22.67;100.00
50430;BME280;36359;41.556;-8.418;2023-07-29T04:05:19;100039.97;;;22.60;100.00
50430;BME280;36359;41.556;-8.418;2023-07-29T04:07:45;100034.56;;;22.53;100.00
50430;BME280;36359;41.556;-8.418;2023-07-29T04:10:11;100041.50;;;22.56;100.00
50430;BME280;36359;41.556;-8.418;2023-07-29T04:12:38;100043.88;;;22.40;100.00
50430;BME280;36359;41.556;-8.418;2023-07-29T04:15:04;100043.88;;;22.40;100.00
50430;BME280;36359;41.556;-8.418;2023-07-29T04:17:30;100026.94;;;22.00;100.00
50430;BME280;36359;41.556;-8.418;2023-07-29T04:19:56;100044.66;;;22.29;100.00
50430;BME280;36359;41.556;-8.418;2023-07-29T04:22:27;100038.63;;;22.51;100.00
50430;BME280;36359;41.556;-8.418;2023-07-29T04:24:52;100041.06;;;22.29;100.00
50430;BME280;36359;41.556;-8.418;2023-07-29T04:27:19;100048.38;;;21.86;100.00
50430;BME280;36359;41.556;-8.418;2023-07-29T04:29:44;100038.72;;;21.77;100.00
50430;BME280;36359;41.556;-8.418;2023-07-29T04:32:10;100040.25;;;21.54;100.00
50430;BME280;36359;41.556;-8.418;2023-07-29T04:34:36;100043.91;;;21.48;100.00
50430;BME280;36359;41.556;-8.418;2023-07-29T04:37:02;100045.38;;;21.51;100.00
50430;BME280;36359;41.556;-8.418;2023-07-29T04:39:27;100053.13;;;21.61;100.00
50430;BME280;36359;41.556;-8.418;2023-07-29T04:41:53;100056.56;;;21.93;100.00
50430;BME280;36359;41.556;-8.418;2023-07-29T04:44:19;100045.69;;;21.98;100.00
50430;BME280;36359;41.556;-8.418;2023-07-29T04:46:45;100059.34;;;21.93;100.00
50430;BME280;36359;41.556;-8.418;2023-07-29T04:49:11;100060.66;;;22.27;100.00
50430;BME280;36359;41.556;-8.418;2023-07-29T04:51:37;100054.34;;;22.20;100.00
50430;BME280;36359;41.556;-8.418;2023-07-29T04:54:03;100064.88;;;22.30;100.00
50430;BME280;36359;41.556;-8.418;2023-07-29T04:56:28;100063.84;;;22.42;100.00
50430;BME280;36359;41.556;-8.418;2023-07-29T04:58:54;100065.72;;;22.72;100.00
50430;BME280;36359;41.556;-8.418;2023-07-29T05:01:20;100062.41;;;22.52;100.00
50430;BME280;36359;41.556;-8.418;2023-07-29T05:03:45;100058.09;;;22.56;100.00
50430;BME280;36359;41.556;-8.418;2023-07-29T05:06:12;100063.16;;;22.59;100.00
50430;BME280;36359;41.556;-8.418;2023-07-29T05:08:38;100063.44;;;22.69;100.00
50430;BME280;36359;41.556;-8.418;2023-07-29T05:11:03;100059.03;;;22.50;100.00
50430;BME280;36359;41.556;-8.418;2023-07-29T05:13:29;100069.16;;;22.56;100.00
50430;BME280;36359;41.556;-8.418;2023-07-29T05:15:55;100068.19;;;22.50;100.00
50430;BME280;36359;41.556;-8.418;2023-07-29T05:18:21;100065.91;;;22.59;100.00
50430;BME280;36359;41.556;-8.418;2023-07-29T05:20:48;100075.41;;;22.51;100.00
50430;BME280;36359;41.556;-8.418;2023-07-29T05:23:14;100068.63;;;22.47;100.00
50430;BME280;36359;41.556;-8.418;2023-07-29T05:25:40;100069.06;;;22.32;100.00
50430;BME280;36359;41.556;-8.418;2023-07-29T05:28:06;100075.97;;;22.41;100.00
50430;BME280;36359;41.556;-8.418;2023-07-29T05:30:32;100078.38;;;22.50;100.00
50430;BME280;36359;41.556;-8.418;2023-07-29T05:33:00;100083.81;;;22.44;100.00
50430;BME280;36359;41.556;-8.418;2023-07-29T05:35:26;100082.56;;;22.40;100.00
50430;BME280;36359;41.556;-8.418;2023-07-29T05:37:52;100083.44;;;22.53;100.00
50430;BME280;36359;41.556;-8.418;2023-07-29T05:40:17;100086.03;;;22.66;100.00
50430;BME280;36359;41.556;-8.418;2023-07-29T05:42:44;100082.59;;;22.52;100.00
50430;BME280;36359;41.556;-8.418;2023-07-29T05:45:11;100088.09;;;22.40;100.00
50430;BME280;36359;41.556;-8.418;2023-07-29T05:47:37;100095.63;;;22.33;100.00
50430;BME280;36359;41.556;-8.418;2023-07-29T05:50:03;100090.25;;;22.38;100.00
50430;BME280;36359;41.556;-8.418;2023-07-29T05:52:33;100097.47;;;22.39;100.00
50430;BME280;36359;41.556;-8.418;2023-07-29T05:54:59;100099.25;;;22.34;100.00
50430;BME280;36359;41.556;-8.418;2023-07-29T05:57:25;100099.47;;;22.32;100.00
50430;BME280;36359;41.556;-8.418;2023-07-29T05:59:50;100100.91;;;22.35;100.00
50430;BME280;36359;41.556;-8.418;2023-07-29T06:02:16;100106.75;;;22.45;100.00
50430;BME280;36359;41.556;-8.418;2023-07-29T06:04:42;100105.44;;;22.48;100.00
50430;BME280;36359;41.556;-8.418;2023-07-29T06:07:08;100105.00;;;22.32;100.00
50430;BME280;36359;41.556;-8.418;2023-07-29T06:09:34;100107.28;;;22.35;100.00
50430;BME280;36359;41.556;-8.418;2023-07-29T06:12:00;100109.25;;;22.47;100.00
50430;BME280;36359;41.556;-8.418;2023-07-29T06:14:26;100115.88;;;22.45;100.00
50430;BME280;36359;41.556;-8.418;2023-07-29T06:16:52;100120.31;;;22.47;100.00
50430;BME280;36359;41.556;-8.418;2023-07-29T06:19:19;100124.88;;;22.41;100.00
50430;BME280;36359;41.556;-8.418;2023-07-29T06:21:45;100116.50;;;22.48;100.00
50430;BME280;36359;41.556;-8.418;2023-07-29T06:24:11;100115.25;;;22.43;100.00
50430;BME280;36359;41.556;-8.418;2023-07-29T06:26:37;100109.38;;;22.40;100.00
50430;BME280;36359;41.556;-8.418;2023-07-29T06:29:02;100115.00;;;22.33;100.00
50430;BME280;36359;41.556;-8.418;2023-07-29T06:31:28;100119.53;;;22.28;100.00
50430;BME280;36359;41.556;-8.418;2023-07-29T06:33:55;100121.25;;;22.40;100.00
50430;BME280;36359;41.556;-8.418;2023-07-29T06:36:20;100113.59;;;22.42;100.00
50430;BME280;36359;41.556;-8.418;2023-07-29T06:38:46;100123.56;;;22.43;100.00
50430;BME280;36359;41.556;-8.418;2023-07-29T06:41:12;100134.66;;;22.55;100.00
50430;BME280;36359;41.556;-8.418;2023-07-29T06:43:38;100133.09;;;22.48;100.00
50430;BME280;36359;41.556;-8.418;2023-07-29T06:46:03;100138.56;;;22.66;100.00
50430;BME280;36359;41.556;-8.418;2023-07-29T06:48:29;100141.50;;;22.71;100.00
50430;BME280;36359;41.556;-8.418;2023-07-29T06:50:55;100141.03;;;22.74;100.00
50430;BME280;36359;41.556;-8.418;2023-07-29T06:53:21;100149.91;;;22.76;100.00
50430;BME280;36359;41.556;-8.418;2023-07-29T06:55:47;100150.69;;;22.83;100.00
50430;BME280;36359;41.556;-8.418;2023-07-29T06:58:13;100157.97;;;22.96;100.00
50430;BME280;36359;41.556;-8.418;2023-07-29T07:00:38;100155.88;;;22.92;100.00
50430;BME280;36359;41.556;-8.418;2023-07-29T07:03:04;100155.13;;;22.84;100.00
50430;BME280;36359;41.556;-8.418;2023-07-29T07:05:30;100159.19;;;22.82;100.00
50430;BME280;36359;41.556;-8.418;2023-07-29T07:07:55;100157.72;;;22.79;100.00
50430;BME280;36359;41.556;-8.418;2023-07-29T07:10:21;100166.19;;;22.84;100.00
50430;BME280;36359;41.556;-8.418;2023-07-29T07:12:48;100179.41;;;23.01;100.00
50430;BME280;36359;41.556;-8.418;2023-07-29T07:15:14;100178.13;;;23.15;99.66
50430;BME280;36359;41.556;-8.418;2023-07-29T07:17:40;100184.28;;;23.29;96.94
50430;BME280;36359;41.556;-8.418;2023-07-29T07:20:06;100180.81;;;23.33;97.50
50430;BME280;36359;41.556;-8.418;2023-07-29T07:22:32;100184.28;;;23.29;98.01
50430;BME280;36359;41.556;-8.418;2023-07-29T07:24:58;100186.34;;;23.33;99.44
50430;BME280;36359;41.556;-8.418;2023-07-29T07:27:23;100179.47;;;23.24;100.00
50430;BME280;36359;41.556;-8.418;2023-07-29T07:29:49;100186.72;;;23.37;100.00
50430;BME280;36359;41.556;-8.418;2023-07-29T07:32:14;100182.63;;;23.40;100.00
50430;BME280;36359;41.556;-8.418;2023-07-29T07:34:40;100185.84;;;23.25;100.00
50430;BME280;36359;41.556;-8.418;2023-07-29T07:37:06;100194.31;;;23.42;100.00
50430;BME280;36359;41.556;-8.418;2023-07-29T07:39:32;100194.25;;;23.18;100.00
50430;BME280;36359;41.556;-8.418;2023-07-29T07:41:58;100196.88;;;23.13;100.00
50430;BME280;36359;41.556;-8.418;2023-07-29T07:44:23;100207.25;;;23.29;100.00
50430;BME280;36359;41.556;-8.418;2023-07-29T07:46:52;100204.31;;;23.43;99.36
50430;BME280;36359;41.556;-8.418;2023-07-29T07:49:19;100215.34;;;23.31;97.35
50430;BME280;36359;41.556;-8.418;2023-07-29T07:51:44;100205.78;;;23.57;94.74
50430;BME280;36359;41.556;-8.418;2023-07-29T07:54:10;100204.56;;;23.65;95.41
50430;BME280;36359;41.556;-8.418;2023-07-29T07:56:35;100207.50;;;23.93;95.24
50430;BME280;36359;41.556;-8.418;2023-07-29T07:59:01;100208.97;;;23.96;97.22
50430;BME280;36359;41.556;-8.418;2023-07-29T08:01:27;100218.47;;;24.00;88.87
50430;BME280;36359;41.556;-8.418;2023-07-29T08:03:52;100213.66;;;24.07;90.97
50430;BME280;36359;41.556;-8.418;2023-07-29T08:06:18;100211.03;;;24.00;94.14
50430;BME280;36359;41.556;-8.418;2023-07-29T08:08:44;100216.91;;;23.80;95.39
50430;BME280;36359;41.556;-8.418;2023-07-29T08:11:09;100218.09;;;23.73;95.22
50430;BME280;36359;41.556;-8.418;2023-07-29T08:13:35;100210.16;;;23.76;95.05
50430;BME280;36359;41.556;-8.418;2023-07-29T08:16:01;100216.78;;;23.75;93.71
50430;BME280;36359;41.556;-8.418;2023-07-29T08:18:26;100218.19;;;23.66;95.65
50430;BME280;36359;41.556;-8.418;2023-07-29T08:20:56;100217.47;;;23.59;94.57
50430;BME280;36359;41.556;-8.418;2023-07-29T08:23:32;100220.66;;;23.74;93.03
50430;BME280;36359;41.556;-8.418;2023-07-29T08:26:00;100216.31;;;23.78;89.31
50430;BME280;36359;41.556;-8.418;2023-07-29T08:28:31;100214.38;;;23.79;91.64
50430;BME280;36359;41.556;-8.418;2023-07-29T08:30:57;100212.81;;;23.71;92.03
50430;BME280;36359;41.556;-8.418;2023-07-29T08:33:24;100213.66;;;23.72;93.10
50430;BME280;36359;41.556;-8.418;2023-07-29T08:35:50;100213.19;;;23.87;89.10
50430;BME280;36359;41.556;-8.418;2023-07-29T08:38:15;100218.94;;;23.97;89.00
50430;BME280;36359;41.556;-8.418;2023-07-29T08:41:35;100214.84;;;24.11;90.30
50430;BME280;36359;41.556;-8.418;2023-07-29T08:44:00;100219.06;;;24.14;89.73
50430;BME280;36359;41.556;-8.418;2023-07-29T08:46:28;100217.16;;;24.14;89.11
50430;BME280;36359;41.556;-8.418;2023-07-29T08:51:36;100217.28;;;24.43;86.30
50430;BME280;36359;41.556;-8.418;2023-07-29T08:54:02;100215.53;;;24.65;82.97
50430;BME280;36359;41.556;-8.418;2023-07-29T08:56:27;100218.03;;;24.79;82.07
50430;BME280;36359;41.556;-8.418;2023-07-29T08:58:55;100228.50;;;24.88;82.55
50430;BME280;36359;41.556;-8.418;2023-07-29T09:01:21;100228.25;;;24.90;81.92
50430;BME280;36359;41.556;-8.418;2023-07-29T09:03:47;100233.72;;;24.73;81.89
50430;BME280;36359;41.556;-8.418;2023-07-29T09:06:13;100229.13;;;24.79;82.04
50430;BME280;36359;41.556;-8.418;2023-07-29T09:08:40;100232.88;;;24.73;83.22
50430;BME280;36359;41.556;-8.418;2023-07-29T09:11:06;100234.47;;;24.68;84.81
50430;BME280;36359;41.556;-8.418;2023-07-29T09:13:32;100228.13;;;24.56;85.74
50430;BME280;36359;41.556;-8.418;2023-07-29T09:15:58;100239.22;;;24.56;83.64
50430;BME280;36359;41.556;-8.418;2023-07-29T09:18:26;100231.94;;;24.55;84.42
50430;BME280;36359;41.556;-8.418;2023-07-29T09:20:53;100237.16;;;24.52;82.69
50430;BME280;36359;41.556;-8.418;2023-07-29T09:23:18;100234.84;;;24.60;83.55
50430;BME280;36359;41.556;-8.418;2023-07-29T09:25:47;100226.94;;;24.81;81.15
50430;BME280;36359;41.556;-8.418;2023-07-29T09:28:15;100239.69;;;24.93;83.01
50430;BME280;36359;41.556;-8.418;2023-07-29T09:30:42;100240.44;;;24.89;81.56
50430;BME280;36359;41.556;-8.418;2023-07-29T09:33:08;100238.50;;;24.89;81.48
50430;BME280;36359;41.556;-8.418;2023-07-29T09:35:36;100228.75;;;24.87;80.29
50430;BME280;36359;41.556;-8.418;2023-07-29T09:38:03;100242.91;;;25.02;80.91
50430;BME280;36359;41.556;-8.418;2023-07-29T09:40:36;100237.56;;;24.84;79.61
50430;BME280;36359;41.556;-8.418;2023-07-29T09:43:02;100244.19;;;24.83;80.88
50430;BME280;36359;41.556;-8.418;2023-07-29T09:45:29;100238.19;;;25.14;78.13
50430;BME280;36359;41.556;-8.418;2023-07-29T09:47:57;100241.78;;;25.27;79.42
50430;BME280;36359;41.556;-8.418;2023-07-29T09:50:24;100238.28;;;25.20;78.68
50430;BME280;36359;41.556;-8.418;2023-07-29T09:52:51;100235.63;;;25.25;79.10
50430;BME280;36359;41.556;-8.418;2023-07-29T09:55:18;100234.28;;;24.87;82.84
50430;BME280;36359;41.556;-8.418;2023-07-29T09:57:45;100238.03;;;24.81;84.81
50430;BME280;36359;41.556;-8.418;2023-07-29T10:00:12;100242.00;;;24.85;83.17
50430;BME280;36359;41.556;-8.418;2023-07-29T10:02:39;100243.75;;;25.03;78.48
50430;BME280;36359;41.556;-8.418;2023-07-29T10:05:07;100241.84;;;25.03;80.91
50430;BME280;36359;41.556;-8.418;2023-07-29T10:07:36;100244.69;;;24.80;83.87
50430;BME280;36359;41.556;-8.418;2023-07-29T10:10:04;100235.31;;;24.69;84.58
50430;BME280;36359;41.556;-8.418;2023-07-29T10:12:31;100241.50;;;24.88;80.06
50430;BME280;36359;41.556;-8.418;2023-07-29T10:15:05;100242.34;;;25.00;82.88
50430;BME280;36359;41.556;-8.418;2023-07-29T10:17:33;100232.53;;;25.09;82.62
50430;BME280;36359;41.556;-8.418;2023-07-29T10:20:00;100237.97;;;25.04;80.12
50430;BME280;36359;41.556;-8.418;2023-07-29T10:22:36;100236.00;;;25.17;77.89
50430;BME280;36359;41.556;-8.418;2023-07-29T10:25:07;100239.28;;;25.42;76.67
50430;BME280;36359;41.556;-8.418;2023-07-29T10:27:55;100232.97;;;25.64;80.05
50430;BME280;36359;41.556;-8.418;2023-07-29T10:30:21;100240.56;;;25.85;78.31
50430;BME280;36359;41.556;-8.418;2023-07-29T10:32:48;100231.22;;;25.91;75.59
50430;BME280;36359;41.556;-8.418;2023-07-29T10:35:15;100234.50;;;25.88;74.24
50430;BME280;36359;41.556;-8.418;2023-07-29T10:37:42;100230.44;;;25.79;74.29
50430;BME280;36359;41.556;-8.418;2023-07-29T10:40:10;100239.38;;;25.64;75.08
50430;BME280;36359;41.556;-8.418;2023-07-29T10:42:37;100238.78;;;25.45;77.07
50430;BME280;36359;41.556;-8.418;2023-07-29T10:45:19;100238.34;;;25.36;76.92
50430;BME280;36359;41.556;-8.418;2023-07-29T10:47:46;100243.16;;;25.75;75.10
50430;BME280;36359;41.556;-8.418;2023-07-29T10:50:20;100234.50;;;25.88;74.18
50430;BME280;36359;41.556;-8.418;2023-07-29T10:52:53;100241.59;;;25.96;76.27
50430;BME280;36359;41.556;-8.418;2023-07-29T10:55:48;100244.03;;;25.92;76.50
50430;BME280;36359;41.556;-8.418;2023-07-29T10:58:16;100242.09;;;26.10;75.57
50430;BME280;36359;41.556;-8.418;2023-07-29T11:00:50;100243.47;;;25.61;77.27
50430;BME280;36359;41.556;-8.418;2023-07-29T11:03:16;100243.16;;;25.75;77.17
50430;BME280;36359;41.556;-8.418;2023-07-29T11:05:49;100243.13;;;25.87;75.76
50430;BME280;36359;41.556;-8.418;2023-07-29T11:08:20;100244.66;;;25.94;75.25
50430;BME280;36359;41.556;-8.418;2023-07-29T11:13:31;100237.91;;;26.29;74.00
50430;BME280;36359;41.556;-8.418;2023-07-29T11:15:58;100243.38;;;26.58;72.70
50430;BME280;36359;41.556;-8.418;2023-07-29T11:18:33;100245.38;;;26.84;74.38
50430;BME280;36359;41.556;-8.418;2023-07-29T11:21:00;100232.59;;;26.88;73.20
50430;BME280;36359;41.556;-8.418;2023-07-29T11:23:34;100237.44;;;27.15;73.41
50430;BME280;36359;41.556;-8.418;2023-07-29T11:26:01;100233.47;;;26.67;75.23
50430;BME280;36359;41.556;-8.418;2023-07-29T11:28:27;100241.19;;;26.60;76.84
50430;BME280;36359;41.556;-8.418;2023-07-29T11:30:57;100234.28;;;26.45;76.30
50430;BME280;36359;41.556;-8.418;2023-07-29T11:33:25;100238.16;;;26.44;75.16
50430;BME280;36359;41.556;-8.418;2023-07-29T11:35:51;100234.50;;;26.22;76.27
50430;BME280;36359;41.556;-8.418;2023-07-29T11:38:19;100233.44;;;26.06;78.78
50430;BME280;36359;41.556;-8.418;2023-07-29T11:40:56;100234.69;;;26.15;77.39
50430;BME280;36359;41.556;-8.418;2023-07-29T11:43:22;100233.38;;;26.23;75.95
50430;BME280;36359;41.556;-8.418;2023-07-29T11:45:47;100240.06;;;26.05;73.21
50430;BME280;36359;41.556;-8.418;2023-07-29T11:48:13;100238.72;;;26.08;76.95
50430;BME280;36359;41.556;-8.418;2023-07-29T11:50:39;100241.41;;;26.19;75.56
50430;BME280;36359;41.556;-8.418;2023-07-29T11:53:04;100245.91;;;26.59;76.04
50430;BME280;36359;41.556;-8.418;2023-07-29T11:55:30;100254.06;;;26.66;75.11
50430;BME280;36359;41.556;-8.418;2023-07-29T11:57:57;100248.81;;;26.91;72.10
50430;BME280;36359;41.556;-8.418;2023-07-29T12:00:22;100245.56;;;26.56;73.33
50430;BME280;36359;41.556;-8.418;2023-07-29T12:02:49;100242.03;;;26.43;72.70
50430;BME280;36359;41.556;-8.418;2023-07-29T12:05:15;100241.94;;;26.55;71.32
50430;BME280;36359;41.556;-8.418;2023-07-29T12:07:43;100239.28;;;27.09;70.38
50430;BME280;36359;41.556;-8.418;2023-07-29T12:10:10;100246.44;;;27.05;70.84
50430;BME280;36359;41.556;-8.418;2023-07-29T12:12:50;100244.75;;;26.77;70.86
50430;BME280;36359;41.556;-8.418;2023-07-29T12:15:29;100237.44;;;27.15;72.04
50430;BME280;36359;41.556;-8.418;2023-07-29T12:17:59;100238.66;;;27.29;70.28
50430;BME280;36359;41.556;-8.418;2023-07-29T12:22:55;100230.13;;;27.14;71.06
50430;BME280;36359;41.556;-8.418;2023-07-29T12:25:22;100231.13;;;27.25;70.00
50430;BME280;36359;41.556;-8.418;2023-07-29T12:27:48;100224.44;;;27.26;71.45
50430;BME280;36359;41.556;-8.418;2023-07-29T12:30:14;100238.66;;;27.29;69.55
50430;BME280;36359;41.556;-8.418;2023-07-29T12:32:46;100232.44;;;26.95;70.93
50430;BME280;36359;41.556;-8.418;2023-07-29T12:35:13;100223.75;;;27.40;68.51
50430;BME280;36359;41.556;-8.418;2023-07-29T12:37:39;100226.06;;;27.49;67.98
50430;BME280;36359;41.556;-8.418;2023-07-29T12:40:28;100231.13;;;26.59;72.27
50430;BME280;36359;41.556;-8.418;2023-07-29T12:42:54;100227.97;;;26.72;74.79
50430;BME280;36359;41.556;-8.418;2023-07-29T12:45:20;100223.25;;;26.72;72.15
50430;BME280;36359;41.556;-8.418;2023-07-29T12:47:48;100238.94;;;27.06;71.28
50430;BME280;36359;41.556;-8.418;2023-07-29T12:50:14;100233.53;;;27.43;70.22